Time;durP1;ratioP1;P1;durP2;ratioP2;P2;SDS_P1;SDS_P2;PMS_P1;PMS_P2;Temp;Humidity;BMP_temperature;BMP_pressure;BME280_temperature;BME280_humidity;BME280_pressure;Samples;Min_cycle;Max_cycle;Signal;HPM_P1;HPM_P2
2022/07/26 00:00:54;;;;;;;6.20;1.10;;;;;;;19.77;61.09;100394.23;108259;1275;60321;-83
2022/07/26 00:03:21;;;;;;;4.90;1.10;;;;;;;19.79;61.01;100394.48;108258;1275;60610;-84
2022/07/26 00:05:48;;;;;;;5.00;1.20;;;;;;;19.81;60.99;100391.64;107958;1274;75185;-84
2022/07/26 00:08:15;;;;;;;6.00;1.40;;;;;;;19.84;60.78;100386.27;107847;1274;71512;-84
2022/07/26 00:10:48;;;;;;;4.80;1.10;;;;;;;19.87;60.84;100387.86;108023;1274;73561;-84
2022/07/26 00:13:17;;;;;;;5.10;1.60;;;;;;;19.90;60.80;100386.33;108175;1274;62115;-84
2022/07/26 00:15:45;;;;;;;4.10;1.00;;;;;;;19.94;60.58;100390.46;108066;1274;61347;-85
2022/07/26 00:18:13;;;;;;;7.80;1.40;;;;;;;19.97;60.53;100386.15;108128;1274;75008;-84
2022/07/26 00:20:40;;;;;;;5.10;1.20;;;;;;;20.00;60.45;100385.17;107958;1274;72286;-84
2022/07/26 00:23:08;;;;;;;4.20;1.30;;;;;;;20.02;60.45;100385.58;108054;1273;74285;-85
2022/07/26 00:25:35;;;;;;;5.40;1.10;;;;;;;20.03;60.49;100381.39;107992;1275;61829;-85
2022/07/26 00:28:03;;;;;;;6.10;1.40;;;;;;;20.03;60.53;100381.98;107893;1274;61834;-85
2022/07/26 00:30:31;;;;;;;6.40;1.80;;;;;;;20.03;60.49;100380.92;107998;1274;74884;-84
2022/07/26 00:32:57;;;;;;;7.30;1.50;;;;;;;20.05;60.37;100384.02;108063;1274;71400;-83
2022/07/26 00:35:24;;;;;;;5.90;1.20;;;;;;;20.06;60.35;100384.78;108186;1274;73981;-83
2022/07/26 00:37:52;;;;;;;3.90;1.10;;;;;;;20.09;60.29;100382.89;107973;1274;60603;-84
2022/07/26 00:40:19;;;;;;;4.50;1.20;;;;;;;20.11;60.20;100386.53;107810;1274;62096;-83
2022/07/26 00:42:46;;;;;;;4.30;1.00;;;;;;;20.12;60.19;100396.06;108156;1274;75081;-83
2022/07/26 00:45:14;;;;;;;4.90;1.20;;;;;;;20.12;60.06;100399.36;108159;1274;72617;-83
2022/07/26 00:47:41;;;;;;;2.80;0.90;;;;;;;20.13;60.15;100396.30;107904;1274;72902;-84
2022/07/26 00:50:11;;;;;;;4.40;1.30;;;;;;;20.14;60.07;100396.48;108061;1274;61531;-85
2022/07/26 00:52:41;;;;;;;4.40;1.30;;;;;;;20.13;59.99;100394.38;108064;1274;61790;-83
2022/07/26 00:55:08;;;;;;;5.70;1.20;;;;;;;20.12;60.03;100393.16;108064;1274;74865;-84
2022/07/26 00:57:36;;;;;;;3.70;1.30;;;;;;;20.12;60.03;100394.45;108036;1273;71319;-83
2022/07/26 01:00:10;;;;;;;6.40;1.20;;;;;;;20.11;59.97;100391.65;108094;1274;73098;-83
2022/07/26 01:02:38;;;;;;;5.00;1.30;;;;;;;20.12;59.88;100393.22;108004;1274;59099;-85
2022/07/26 01:05:06;;;;;;;3.10;1.10;;;;;;;20.14;59.80;100389.55;107954;1274;61249;-84
2022/07/26 01:07:33;;;;;;;5.40;1.30;;;;;;;20.15;59.78;100391.59;108098;1274;76228;-84
2022/07/26 01:10:03;;;;;;;7.10;1.40;;;;;;;20.17;59.61;100391.80;108018;1274;72495;-86
2022/07/26 01:12:30;;;;;;;4.70;1.60;;;;;;;20.19;59.62;100391.77;108173;1274;74075;-86
2022/07/26 01:14:57;;;;;;;5.70;1.10;;;;;;;20.20;59.56;100393.46;108106;1274;62357;-86
2022/07/26 01:17:24;;;;;;;5.40;1.20;;;;;;;20.22;59.57;100394.40;108040;1274;61140;-85
2022/07/26 01:19:51;;;;;;;6.70;1.20;;;;;;;20.20;59.66;100396.85;108152;1274;75813;-86
2022/07/26 01:22:18;;;;;;;6.30;1.60;;;;;;;20.20;59.77;100398.95;107995;1274;73014;-85
2022/07/26 01:24:45;;;;;;;5.00;1.40;;;;;;;20.18;59.92;100395.80;107942;1274;73255;-87
2022/07/26 01:27:12;;;;;;;8.10;1.60;;;;;;;20.17;59.92;100395.25;108014;1274;62268;-87
2022/07/26 01:29:39;;;;;;;4.40;1.30;;;;;;;20.16;60.10;100398.67;108085;1274;61894;-86
2022/07/26 01:32:07;;;;;;;3.30;1.00;;;;;;;20.12;60.28;100403.19;108128;1274;74901;-86
2022/07/26 01:34:34;;;;;;;5.40;1.30;;;;;;;20.07;60.28;100405.10;107912;1274;72481;-84
2022/07/26 01:37:02;;;;;;;5.80;1.30;;;;;;;20.02;60.23;100404.27;107941;1274;72778;-85
2022/07/26 01:39:29;;;;;;;3.30;0.90;;;;;;;19.98;59.92;100406.09;107978;1274;61842;-86
2022/07/26 01:41:56;;;;;;;4.20;1.10;;;;;;;19.95;59.81;100407.09;108029;1274;61182;-85
2022/07/26 01:44:23;;;;;;;5.20;1.10;;;;;;;19.93;59.81;100409.36;108007;1274;75776;-85
2022/07/26 01:46:50;;;;;;;5.70;1.20;;;;;;;19.92;59.78;100407.73;108132;1275;71355;-84
2022/07/26 01:49:17;;;;;;;5.20;1.30;;;;;;;19.92;59.91;100407.61;108148;1274;72530;-84
2022/07/26 01:51:44;;;;;;;4.50;1.10;;;;;;;19.91;59.76;100405.17;108033;1274;63295;-85
2022/07/26 01:54:11;;;;;;;6.80;1.10;;;;;;;19.89;59.80;100407.51;107848;1275;60570;-86
2022/07/26 01:56:38;;;;;;;5.10;0.90;;;;;;;19.89;59.86;100409.42;107977;1274;76044;-85
2022/07/26 01:59:06;;;;;;;4.20;1.30;;;;;;;19.88;59.72;100409.73;108043;1274;71995;-85
2022/07/26 02:01:33;;;;;;;4.80;1.10;;;;;;;19.88;59.63;100411.26;108087;1274;74633;-85
2022/07/26 02:04:06;;;;;;;4.30;0.90;;;;;;;19.86;59.74;100408.42;108165;1274;61396;-84
2022/07/26 02:06:35;;;;;;;6.90;1.10;;;;;;;19.86;59.84;100411.60;108050;1274;60458;-85
2022/07/26 02:09:03;;;;;;;4.40;0.90;;;;;;;19.84;59.86;100414.47;107867;1275;76085;-84
2022/07/26 02:11:37;;;;;;;3.40;0.80;;;;;;;19.83;59.78;100412.64;108050;1274;71688;-85
2022/07/26 02:14:04;;;;;;;5.60;0.90;;;;;;;19.82;59.95;100414.06;108175;1274;72274;-83
2022/07/26 02:16:32;;;;;;;4.50;0.90;;;;;;;19.81;59.92;100422.55;108052;1274;62205;-84
2022/07/26 02:18:59;;;;;;;4.20;0.80;;;;;;;19.80;60.09;100422.42;108097;1274;62422;-84
2022/07/26 02:21:27;;;;;;;4.30;1.00;;;;;;;19.81;60.10;100426.92;108082;1274;75072;-84
2022/07/26 02:23:53;;;;;;;6.80;1.00;;;;;;;19.83;59.96;100428.17;108145;1274;71337;-86
2022/07/26 02:26:21;;;;;;;4.50;1.30;;;;;;;19.81;60.24;100431.05;108055;1274;73767;-85
2022/07/26 02:28:48;;;;;;;4.20;0.90;;;;;;;19.80;60.33;100433.14;108071;1274;63404;-84
2022/07/26 02:31:15;;;;;;;2.80;0.80;;;;;;;19.79;60.46;100440.33;108134;1274;60719;-85
2022/07/26 02:33:42;;;;;;;5.90;1.00;;;;;;;19.79;60.52;100443.18;108003;1274;74892;-85
2022/07/26 02:36:10;;;;;;;4.70;0.80;;;;;;;19.80;60.45;100438.19;108043;1273;73273;-84
2022/07/26 02:38:37;;;;;;;3.00;0.90;;;;;;;19.78;60.53;100437.63;107967;1274;72534;-84
2022/07/26 02:41:07;;;;;;;4.10;0.90;;;;;;;19.80;60.58;100439.75;107886;1274;60996;-84
2022/07/26 02:43:35;;;;;;;4.60;1.10;;;;;;;19.79;60.73;100444.32;108006;1274;60593;-85
2022/07/26 02:46:05;;;;;;;4.10;1.30;;;;;;;19.78;60.73;100447.73;108082;1274;75628;-85
2022/07/26 02:48:32;;;;;;;3.80;0.90;;;;;;;19.77;60.81;100446.77;108030;1274;72444;-84
2022/07/26 02:50:59;;;;;;;4.80;0.80;;;;;;;19.77;60.91;100445.45;108129;1274;72985;-84
2022/07/26 02:53:26;;;;;;;3.90;1.00;;;;;;;19.76;61.06;100447.00;108060;1274;60530;-84
2022/07/26 02:55:54;;;;;;;4.20;0.90;;;;;;;19.75;61.11;100449.69;108065;1274;63545;-83
2022/07/26 02:58:21;;;;;;;6.70;1.30;;;;;;;19.73;61.33;100448.73;108080;1274;75278;-82
2022/07/26 03:00:48;;;;;;;4.30;1.20;;;;;;;19.70;61.64;100449.64;108173;1274;72951;-84
2022/07/26 03:03:15;;;;;;;4.60;1.00;;;;;;;19.70;61.61;100448.86;108170;1274;74530;-85
2022/07/26 03:05:42;;;;;;;5.30;1.00;;;;;;;19.67;61.88;100452.27;107962;1275;59647;-84
2022/07/26 03:08:09;;;;;;;5.40;1.10;;;;;;;19.65;61.92;100455.55;108170;1274;61855;-84
2022/07/26 03:10:36;;;;;;;4.50;1.20;;;;;;;19.64;62.10;100452.25;108105;1274;76115;-84
2022/07/26 03:13:03;;;;;;;5.70;1.20;;;;;;;19.63;62.16;100450.03;107874;1274;72446;-84
2022/07/26 03:15:30;;;;;;;3.80;1.20;;;;;;;19.61;62.34;100451.70;108026;1274;73127;-84
2022/07/26 03:17:57;;;;;;;4.30;0.90;;;;;;;19.60;62.35;100451.31;108169;1274;61611;-84
2022/07/26 03:20:24;;;;;;;4.60;1.00;;;;;;;19.57;62.55;100453.68;107928;1274;61675;-84
2022/07/26 03:22:51;;;;;;;5.70;1.00;;;;;;;19.54;62.69;100453.58;108129;1274;76121;-84
2022/07/26 03:25:19;;;;;;;3.80;0.90;;;;;;;19.53;62.77;100455.86;107867;1274;72392;-85
2022/07/26 03:27:45;;;;;;;3.60;1.10;;;;;;;19.48;63.30;100457.17;108064;1274;72916;-84
2022/07/26 03:30:13;;;;;;;4.10;1.20;;;;;;;19.46;63.37;100456.75;107990;1272;61978;-85
2022/07/26 03:32:40;;;;;;;3.90;1.00;;;;;;;19.42;63.73;100454.73;108178;1274;63513;-85
2022/07/26 03:35:08;;;;;;;4.10;1.10;;;;;;;19.40;63.86;100455.94;108097;1274;75980;-85
2022/07/26 03:37:35;;;;;;;7.20;1.20;;;;;;;19.38;64.10;100459.73;108017;1274;71613;-84
2022/07/26 03:40:13;;;;;;;4.00;1.20;;;;;;;19.37;64.13;100460.77;107990;1274;73136;-84
2022/07/26 03:42:41;;;;;;;5.40;1.00;;;;;;;19.33;64.56;100459.36;108054;1274;62908;-84
2022/07/26 03:45:08;;;;;;;6.10;1.10;;;;;;;19.32;64.73;100458.69;107937;1274;59963;-84
2022/07/26 03:47:36;;;;;;;5.10;1.40;;;;;;;19.28;65.27;100459.20;108130;1273;75965;-84
2022/07/26 03:50:04;;;;;;;7.20;1.20;;;;;;;19.26;65.62;100464.79;108019;1274;71416;-83
2022/07/26 03:52:32;;;;;;;6.00;1.20;;;;;;;19.25;65.88;100459.51;108097;1274;74442;-84
2022/07/26 03:54:59;;;;;;;5.10;1.50;;;;;;;19.24;66.05;100457.19;107802;1274;64281;-83
2022/07/26 03:57:26;;;;;;;4.60;1.20;;;;;;;19.25;66.04;100458.32;108204;1274;61648;-85
2022/07/26 03:59:54;;;;;;;7.10;1.20;;;;;;;19.26;66.02;100456.48;108267;1274;75004;-84
2022/07/26 04:02:21;;;;;;;5.80;1.40;;;;;;;19.25;66.44;100464.23;108252;1274;71416;-84
2022/07/26 04:04:49;;;;;;;5.90;1.30;;;;;;;19.25;66.47;100464.03;108324;1274;72921;-85
2022/07/26 04:07:15;;;;;;;5.40;1.30;;;;;;;19.26;66.58;100471.30;108242;1273;61981;-84
2022/07/26 04:09:43;;;;;;;5.40;1.50;;;;;;;19.25;66.66;100468.29;108249;1274;61905;-84
2022/07/26 04:12:10;;;;;;;7.10;1.50;;;;;;;19.25;66.99;100472.73;108242;1274;75140;-83
2022/07/26 04:14:41;;;;;;;5.50;1.40;;;;;;;19.23;67.28;100464.25;108266;1274;72750;-84
2022/07/26 04:17:08;;;;;;;4.50;1.30;;;;;;;19.24;67.24;100463.80;108254;1274;74171;-86
2022/07/26 04:19:35;;;;;;;5.40;1.30;;;;;;;19.25;67.43;100465.52;108140;1274;62983;-85
2022/07/26 04:22:05;;;;;;;4.80;1.40;;;;;;;19.25;67.58;100466.55;108072;1274;60441;-85
2022/07/26 04:24:32;;;;;;;4.20;1.10;;;;;;;19.27;67.44;100467.14;107985;1274;77161;-83
2022/07/26 04:26:59;;;;;;;5.10;1.20;;;;;;;19.26;67.61;100457.17;108161;1274;71544;-83
2022/07/26 04:29:27;;;;;;;5.80;1.20;;;;;;;19.29;67.69;100460.77;107863;1274;73183;-84
2022/07/26 04:31:54;;;;;;;6.30;1.30;;;;;;;19.31;67.66;100459.10;107997;1274;62909;-84
2022/07/26 04:34:21;;;;;;;4.10;1.20;;;;;;;19.34;67.59;100464.00;108162;1275;60682;-85
2022/07/26 04:36:48;;;;;;;7.10;1.60;;;;;;;19.37;67.72;100462.44;108009;1274;75073;-84
2022/07/26 04:39:15;;;;;;;6.40;1.20;;;;;;;19.35;68.09;100462.89;107993;1274;72590;-83
2022/07/26 04:41:42;;;;;;;6.10;1.40;;;;;;;19.38;67.99;100460.79;107978;1274;74037;-83
2022/07/26 04:44:09;;;;;;;5.80;1.40;;;;;;;19.38;68.22;100460.37;108086;1274;62624;-83
2022/07/26 04:46:37;;;;;;;6.70;1.80;;;;;;;19.36;68.41;100462.52;108121;1274;60587;-83
2022/07/26 04:49:12;;;;;;;6.90;1.60;;;;;;;19.38;68.60;100461.50;107884;1274;74749;-84
2022/07/26 04:51:39;;;;;;;5.50;1.70;;;;;;;19.39;68.77;100464.52;107952;1274;72591;-83
2022/07/26 04:54:06;;;;;;;6.50;2.10;;;;;;;19.41;68.75;100465.89;108024;1274;74017;-85
2022/07/26 04:56:34;;;;;;;7.10;1.80;;;;;;;19.40;68.73;100466.48;108068;1274;62408;-88
2022/07/26 04:59:01;;;;;;;6.00;1.60;;;;;;;19.43;68.74;100467.23;108194;1274;59902;-87
2022/07/26 05:01:28;;;;;;;7.20;1.80;;;;;;;19.44;68.87;100463.06;108033;1273;74864;-88
2022/07/26 05:03:55;;;;;;;7.10;1.70;;;;;;;19.44;68.92;100469.64;108173;1274;71522;-89
2022/07/26 05:06:25;;;;;;;8.80;2.40;;;;;;;19.44;69.25;100467.11;108022;1274;73063;-89
2022/07/26 05:08:57;;;;;;;8.90;2.10;;;;;;;19.44;69.44;100467.25;107930;1274;61830;-89
2022/07/26 05:11:33;;;;;;;4.80;1.60;;;;;;;19.48;69.35;100467.94;108131;1274;61940;-89
2022/07/26 05:14:04;;;;;;;7.00;2.10;;;;;;;19.49;69.42;100470.86;108075;1274;74980;-87
2022/07/26 05:16:31;;;;;;;6.90;2.40;;;;;;;19.51;69.48;100470.53;108014;1274;71859;-89
2022/07/26 05:18:59;;;;;;;6.70;2.10;;;;;;;19.51;69.65;100471.11;108034;1274;72956;-87
2022/07/26 05:21:26;;;;;;;8.00;1.90;;;;;;;19.53;69.58;100474.88;108061;1274;63828;-87
2022/07/26 05:23:54;;;;;;;8.20;1.90;;;;;;;19.56;69.62;100477.62;108008;1274;60655;-87
2022/07/26 05:26:22;;;;;;;7.40;2.00;;;;;;;19.60;69.43;100471.50;108100;1274;75114;-88
2022/07/26 05:28:48;;;;;;;7.50;1.80;;;;;;;19.67;69.32;100469.79;107824;1277;71534;-85
2022/07/26 05:31:15;;;;;;;9.20;2.20;;;;;;;19.68;69.26;100470.73;108054;1274;59120;-88
2022/07/26 05:33:43;;;;;;;5.50;1.70;;;;;;;19.71;69.15;100471.90;107992;1274;63159;-87
2022/07/26 05:36:11;;;;;;;6.70;1.90;;;;;;;19.76;69.10;100472.85;108188;1274;60312;-88
2022/07/26 05:38:38;;;;;;;7.30;2.00;;;;;;;19.80;68.75;100473.20;108103;1274;76728;-86
2022/07/26 05:41:06;;;;;;;5.70;1.90;;;;;;;19.81;68.67;100472.07;107996;1274;72287;-87
2022/07/26 05:43:32;;;;;;;7.00;2.00;;;;;;;19.80;68.70;100469.42;107966;1274;73438;-86
2022/07/26 05:46:07;;;;;;;7.20;2.10;;;;;;;19.84;68.55;100470.99;108006;1277;63278;-87
2022/07/26 05:48:36;;;;;;;4.70;1.70;;;;;;;19.82;68.47;100474.25;108225;1274;61885;-86
2022/07/26 05:51:07;;;;;;;8.10;2.20;;;;;;;19.85;68.35;100476.35;107859;1274;76265;-85
2022/07/26 05:53:34;;;;;;;8.10;2.00;;;;;;;19.86;68.35;100473.67;108140;1274;71380;-87
2022/07/26 05:56:01;;;;;;;7.20;1.90;;;;;;;19.90;68.23;100470.83;108083;1274;72512;-86
2022/07/26 05:58:31;;;;;;;5.80;1.80;;;;;;;19.93;67.97;100477.58;108151;1274;62305;-87
2022/07/26 06:00:58;;;;;;;7.00;2.30;;;;;;;19.96;67.91;100483.92;107856;1274;60437;-88
2022/07/26 06:03:25;;;;;;;8.00;1.90;;;;;;;20.00;67.99;100487.74;108105;1274;75843;-87
2022/07/26 06:05:55;;;;;;;5.00;1.60;;;;;;;20.04;67.90;100481.31;108016;1274;73414;-87
2022/07/26 06:08:24;;;;;;;7.10;2.00;;;;;;;20.05;67.98;100484.44;107914;1274;72688;-90
2022/07/26 06:10:52;;;;;;;6.60;1.80;;;;;;;20.03;67.89;100484.15;107919;1274;63269;-87
2022/07/26 06:13:18;;;;;;;5.70;1.90;;;;;;;19.96;68.12;100496.36;107982;1274;60752;-87
2022/07/26 06:15:46;;;;;;;7.60;1.90;;;;;;;19.90;68.51;100501.95;108098;1274;74681;-88
2022/07/26 06:18:14;;;;;;;4.40;1.80;;;;;;;19.90;68.68;100499.81;108084;1274;71340;-88
2022/07/26 06:20:42;;;;;;;7.40;2.10;;;;;;;19.87;68.89;100498.67;107940;1274;73431;-87
2022/07/26 06:23:09;;;;;;;6.60;2.20;;;;;;;19.94;68.85;100497.36;108053;1275;63299;-86
2022/07/26 06:25:36;;;;;;;7.00;2.10;;;;;;;20.03;68.60;100498.36;108138;1274;62117;-85
2022/07/26 06:28:08;;;;;;;7.40;2.40;;;;;;;20.12;68.58;100504.06;108311;1274;75933;-86
2022/07/26 06:30:36;;;;;;;6.80;2.20;;;;;;;20.17;68.44;100504.38;107773;1275;71575;-88
2022/07/26 06:33:03;;;;;;;5.90;2.30;;;;;;;20.20;68.42;100511.69;108072;1274;73992;-86
2022/07/26 06:35:31;;;;;;;5.00;1.50;;;;;;;20.22;68.28;100502.61;107920;1274;64261;-86
2022/07/26 06:37:58;;;;;;;6.40;1.90;;;;;;;20.18;68.46;100505.84;107903;1274;61551;-86
2022/07/26 06:40:25;;;;;;;5.80;1.90;;;;;;;20.17;68.34;100503.92;108129;1274;74848;-85
2022/07/26 06:42:52;;;;;;;6.30;1.60;;;;;;;20.16;68.25;100506.02;108114;1270;72727;-85
2022/07/26 06:45:19;;;;;;;5.80;2.10;;;;;;;20.23;68.39;100503.29;107600;1274;74223;-86
2022/07/26 06:47:46;;;;;;;7.80;2.20;;;;;;;20.27;67.89;100506.09;107933;1274;61232;-85
2022/07/26 06:50:13;;;;;;;8.70;1.90;;;;;;;20.33;67.66;100505.27;108047;1274;60763;-84
2022/07/26 06:52:42;;;;;;;6.30;1.80;;;;;;;20.26;67.49;100508.60;107778;1274;75086;-86
2022/07/26 06:55:13;;;;;;;7.20;1.90;;;;;;;20.34;67.44;100506.33;108165;1274;70987;-86
2022/07/26 06:57:41;;;;;;;9.70;2.40;;;;;;;20.50;66.83;100504.16;107905;1274;73191;-86
2022/07/26 07:00:16;;;;;;;6.60;2.20;;;;;;;20.52;66.30;100507.42;107929;1274;61069;-85
2022/07/26 07:02:43;;;;;;;6.40;2.00;;;;;;;20.68;65.81;100505.44;107881;1273;61804;-86
2022/07/26 07:05:11;;;;;;;6.10;2.40;;;;;;;20.71;65.38;100504.08;108136;1274;74918;-86
2022/07/26 07:07:38;;;;;;;3.90;1.60;;;;;;;20.73;65.34;100506.68;107638;1274;72505;-87
2022/07/26 07:10:08;;;;;;;7.00;1.80;;;;;;;20.87;65.04;100505.23;108122;1274;72668;-84
2022/07/26 07:12:36;;;;;;;6.00;1.80;;;;;;;20.99;64.58;100508.95;107656;1275;63819;-86
2022/07/26 07:15:04;;;;;;;3.50;1.60;;;;;;;21.05;63.96;100512.11;107962;1274;60574;-84
2022/07/26 07:17:30;;;;;;;8.50;2.00;;;;;;;21.11;63.62;100513.54;108131;1274;75903;-84
2022/07/26 07:19:59;;;;;;;6.10;2.10;;;;;;;21.09;63.74;100517.60;108171;1274;71705;-86
2022/07/26 07:22:26;;;;;;;5.30;1.80;;;;;;;21.07;63.63;100517.48;107998;1274;74067;-86
2022/07/26 07:24:53;;;;;;;6.50;2.00;;;;;;;21.14;63.17;100513.85;107782;1275;62223;-86
2022/07/26 07:27:20;;;;;;;5.60;2.00;;;;;;;21.20;63.42;100513.44;107580;1274;61672;-86
2022/07/26 07:29:46;;;;;;;8.50;2.50;;;;;;;21.31;63.05;100511.96;107923;1274;76761;-86
2022/07/26 07:32:13;;;;;;;5.00;1.80;;;;;;;21.36;62.60;100517.46;107821;1274;72538;-84
2022/07/26 07:34:45;;;;;;;8.70;2.30;;;;;;;21.31;62.14;100517.58;107794;1274;73023;-86
2022/07/26 07:37:13;;;;;;;6.50;1.80;;;;;;;21.30;62.14;100527.48;107795;1274;62068;-86
2022/07/26 07:39:41;;;;;;;5.60;1.70;;;;;;;21.35;61.81;100524.85;107881;1274;59369;-86
2022/07/26 07:42:08;;;;;;;4.20;1.70;;;;;;;21.60;61.62;100520.48;108168;1274;73975;-85
2022/07/26 07:44:35;;;;;;;4.80;2.10;;;;;;;21.84;60.99;100515.57;107874;1274;70146;-86
2022/07/26 07:47:02;;;;;;;3.60;1.60;;;;;;;22.11;60.32;100509.71;107825;1274;73035;-86
2022/07/26 07:49:29;;;;;;;4.80;1.70;;;;;;;22.40;59.83;100505.13;107993;1273;61385;-85
2022/07/26 07:51:56;;;;;;;8.10;1.70;;;;;;;22.47;58.18;100509.29;108208;1274;60531;-87
2022/07/26 07:54:22;;;;;;;5.10;1.50;;;;;;;22.46;57.91;100515.77;108220;1274;75552;-85
2022/07/26 07:56:51;;;;;;;5.30;1.60;;;;;;;22.42;56.82;100515.42;108279;1274;72685;-85
2022/07/26 07:59:19;;;;;;;5.40;1.80;;;;;;;22.28;57.10;100516.75;108226;1273;72904;-86
2022/07/26 08:01:48;;;;;;;5.90;1.70;;;;;;;22.11;57.62;100518.54;108136;1273;60370;-84
2022/07/26 08:04:16;;;;;;;4.30;1.60;;;;;;;21.87;58.13;100528.94;108192;1274;62238;-83
2022/07/26 08:06:43;;;;;;;5.40;1.60;;;;;;;21.70;58.38;100525.13;108228;1274;75002;-84
2022/07/26 08:09:17;;;;;;;4.80;1.70;;;;;;;21.80;57.99;100531.34;107910;1274;72883;-84
2022/07/26 08:11:45;;;;;;;4.50;1.90;;;;;;;22.02;57.68;100528.33;108053;1274;73935;-84
2022/07/26 08:14:17;;;;;;;5.00;1.80;;;;;;;22.20;56.86;100531.09;107967;1274;60481;-84
2022/07/26 08:16:44;;;;;;;6.70;1.90;;;;;;;22.09;57.06;100538.33;107758;1275;61358;-84
2022/07/26 08:19:12;;;;;;;5.60;1.70;;;;;;;22.03;57.09;100529.04;107884;1274;75972;-84
2022/07/26 08:21:41;;;;;;;5.60;1.50;;;;;;;22.02;56.33;100526.81;107988;1274;72139;-84
2022/07/26 08:24:09;;;;;;;5.80;1.90;;;;;;;22.17;56.30;100528.48;108031;1274;74028;-84
2022/07/26 08:26:36;;;;;;;4.90;2.00;;;;;;;22.35;55.75;100526.23;108018;1274;61549;-84
2022/07/26 08:29:03;;;;;;;3.60;1.40;;;;;;;22.58;55.30;100517.16;108165;1274;60305;-83
2022/07/26 08:31:30;;;;;;;9.30;1.90;;;;;;;22.80;54.42;100519.70;108013;1273;74852;-83
2022/07/26 08:33:57;;;;;;;9.30;1.80;;;;;;;22.75;54.17;100525.45;108104;1275;70397;-85
2022/07/26 08:36:24;;;;;;;6.80;1.60;;;;;;;22.61;54.05;100522.76;107830;1274;73062;-83
2022/07/26 08:38:58;;;;;;;5.60;1.60;;;;;;;22.37;54.93;100531.60;107964;1274;61633;-84
2022/07/26 08:41:25;;;;;;;3.80;1.70;;;;;;;22.18;55.76;100548.32;107924;1274;61661;-85
2022/07/26 08:43:52;;;;;;;5.20;1.40;;;;;;;22.02;57.54;100573.39;108257;1274;75115;-82
2022/07/26 08:46:23;;;;;;;4.80;1.50;;;;;;;21.64;62.69;100588.34;107761;1274;70930;-83
2022/07/26 08:48:56;;;;;;;6.10;1.30;;;;;;;21.23;65.21;100588.36;107975;1272;72980;-84
2022/07/26 08:51:25;;;;;;;3.80;1.30;;;;;;;20.86;67.35;100596.55;107839;1274;62276;-83
2022/07/26 08:53:57;;;;;;;5.80;1.60;;;;;;;20.57;68.82;100603.89;108124;1274;61616;-83
2022/07/26 08:56:35;;;;;;;7.80;2.00;;;;;;;20.19;70.90;100625.77;107994;1274;75815;-85
2022/07/26 08:59:12;;;;;;;6.10;2.10;;;;;;;19.90;72.35;100625.35;107964;1274;70555;-86
2022/07/26 09:01:49;;;;;;;4.90;1.60;;;;;;;19.56;74.94;100631.08;108043;1274;72958;-86
2022/07/26 09:04:18;;;;;;;6.20;1.50;;;;;;;19.30;76.14;100638.69;108001;1274;62321;-86
2022/07/26 09:07:16;;;;;;;3.20;1.10;;;;;;;18.97;78.33;100642.70;107924;1274;59700;-85
2022/07/26 09:09:57;;;;;;;4.70;1.20;;;;;;;18.69;79.40;100645.52;107898;1274;76316;-86
2022/07/26 09:12:26;;;;;;;2.80;1.10;;;;;;;18.52;80.59;100651.47;108018;1274;72128;-86
2022/07/26 09:14:53;;;;;;;3.30;1.10;;;;;;;18.37;81.56;100648.41;107951;1274;73176;-85
2022/07/26 09:17:22;;;;;;;1.70;0.90;;;;;;;18.17;82.15;100659.19;108012;1274;63556;-85
2022/07/26 09:20:28;;;;;;;3.50;1.30;;;;;;;17.95;82.89;100663.64;107859;1274;61826;-85
2022/07/26 09:22:56;;;;;;;3.60;1.10;;;;;;;17.76;83.58;100662.17;107789;1273;74919;-84
2022/07/26 09:25:24;;;;;;;3.30;1.00;;;;;;;17.65;83.77;100663.05;107936;1274;72633;-84
2022/07/26 09:27:52;;;;;;;3.50;1.00;;;;;;;17.61;83.90;100665.39;107907;1274;73070;-85
2022/07/26 09:30:19;;;;;;;3.60;1.20;;;;;;;17.59;84.00;100668.75;108091;1273;62694;-85
2022/07/26 09:32:58;;;;;;;3.40;1.20;;;;;;;17.65;83.94;100670.88;107614;1274;61772;-85
2022/07/26 09:35:26;;;;;;;2.70;1.10;;;;;;;17.71;84.36;100672.66;108087;1274;74169;-84
2022/07/26 09:38:13;;;;;;;3.80;1.40;;;;;;;17.74;84.36;100677.14;108175;1274;72137;-84
2022/07/26 09:40:41;;;;;;;4.60;1.30;;;;;;;17.77;84.40;100681.79;107950;1274;72172;-84
2022/07/26 09:43:15;;;;;;;4.40;1.20;;;;;;;17.79;84.10;100683.35;107666;1274;62030;-85
2022/07/26 09:46:01;;;;;;;7.20;1.50;;;;;;;17.77;84.99;100693.05;108172;1274;60663;-83
2022/07/26 09:48:33;;;;;;;4.40;1.40;;;;;;;17.77;85.16;100695.64;108078;1273;75115;-83
2022/07/26 09:51:40;;;;;;;3.70;1.60;;;;;;;17.80;85.84;100707.16;108126;1273;72684;-84
2022/07/26 09:54:08;;;;;;;3.50;1.70;;;;;;;17.90;85.48;100703.98;107871;1274;74217;-83
2022/07/26 09:56:45;;;;;;;4.20;1.70;;;;;;;18.06;85.24;100704.02;107913;1274;62116;-84
2022/07/26 09:59:17;;;;;;;3.70;1.30;;;;;;;18.26;84.27;100706.31;108073;1274;61155;-84
2022/07/26 10:01:45;;;;;;;4.40;1.50;;;;;;;18.55;83.00;100707.59;107743;1274;75113;-85
2022/07/26 10:04:13;;;;;;;3.50;1.10;;;;;;;18.85;81.89;100702.60;108069;1273;73179;-84
2022/07/26 10:06:41;;;;;;;3.80;1.30;;;;;;;19.14;81.01;100698.35;107917;1274;74251;-83
2022/07/26 10:09:09;;;;;;;3.30;1.30;;;;;;;19.41;79.51;100696.13;107901;1274;63390;-83
2022/07/26 10:11:43;;;;;;;3.60;1.40;;;;;;;19.59;79.26;100699.17;108016;1274;60422;-84
2022/07/26 10:14:32;;;;;;;6.30;1.50;;;;;;;19.73;78.59;100700.09;107710;1274;75428;-84
2022/07/26 10:17:00;;;;;;;4.60;1.70;;;;;;;19.81;78.10;100700.87;107927;1273;72131;-85
2022/07/26 10:19:40;;;;;;;3.60;1.40;;;;;;;19.87;77.73;100703.36;107738;1274;74233;-84
2022/07/26 10:22:39;;;;;;;5.60;1.40;;;;;;;19.88;77.09;100702.88;107864;1274;63518;-84
2022/07/26 10:25:18;;;;;;;4.30;1.40;;;;;;;20.01;77.96;100718.90;107984;1274;61630;-84
2022/07/26 10:27:51;;;;;;;4.30;1.70;;;;;;;19.95;77.04;100729.17;108070;1273;76708;-84
2022/07/26 10:30:18;;;;;;;5.10;1.40;;;;;;;19.74;77.31;100736.35;107847;1274;71249;-85
2022/07/26 10:32:53;;;;;;;3.50;1.20;;;;;;;19.52;77.79;100734.47;108043;1274;72919;-84
2022/07/26 10:35:43;;;;;;;4.20;1.40;;;;;;;19.38;78.72;100736.02;107965;1274;62070;-85
2022/07/26 10:38:20;;;;;;;3.50;1.30;;;;;;;19.29;78.42;100735.71;107878;1273;59176;-84
2022/07/26 10:41:08;;;;;;;3.50;1.20;;;;;;;19.23;77.77;100739.10;108134;1274;76110;-85
2022/07/26 10:43:35;;;;;;;2.60;0.90;;;;;;;19.23;77.75;100742.11;108048;1274;71486;-84
2022/07/26 10:46:23;;;;;;;3.20;1.00;;;;;;;19.20;77.04;100740.54;108078;1273;72912;-84
2022/07/26 10:49:07;;;;;;;3.90;1.00;;;;;;;19.01;75.50;100748.77;107878;1274;62223;-83
2022/07/26 10:51:39;;;;;;;2.90;0.80;;;;;;;18.80;75.79;100753.89;107973;1274;59777;-84
2022/07/26 10:54:09;;;;;;;5.50;1.20;;;;;;;18.64;76.77;100757.23;107758;1274;75989;-85
2022/07/26 10:56:37;;;;;;;2.80;0.80;;;;;;;18.60;77.55;100758.83;108197;1274;71925;-86
2022/07/26 10:59:04;;;;;;;3.90;1.60;;;;;;;18.59;78.05;100762.58;107581;1274;74211;-85
2022/07/26 11:01:33;;;;;;;3.10;1.00;;;;;;;18.68;78.41;100763.50;107056;1274;733424;-86
2022/07/26 11:04:01;;;;;;;3.30;1.00;;;;;;;18.69;78.23;100770.64;107972;1274;59999;-85
2022/07/26 11:06:29;;;;;;;2.80;1.30;;;;;;;18.62;78.21;100775.93;107986;1274;75996;-85
2022/07/26 11:08:56;;;;;;;3.50;1.10;;;;;;;18.60;77.84;100777.41;108161;1274;71264;-85
2022/07/26 11:11:32;;;;;;;2.60;1.00;;;;;;;18.66;77.80;100770.77;108088;1274;72955;-85
2022/07/26 11:14:25;;;;;;;2.60;0.90;;;;;;;18.80;77.73;100775.73;107849;1274;63707;-85
2022/07/26 11:16:53;;;;;;;6.10;1.10;;;;;;;19.04;76.56;100773.63;108232;1274;60813;-84
2022/07/26 11:19:23;;;;;;;5.50;0.90;;;;;;;19.42;75.31;100777.06;107984;1274;74934;-85
2022/07/26 11:21:59;;;;;;;1.90;0.80;;;;;;;19.95;74.43;100774.57;108016;1274;72645;-85
2022/07/26 11:24:28;;;;;;;3.30;0.70;;;;;;;20.61;70.83;100776.98;108143;1273;73866;-83
2022/07/26 11:27:02;;;;;;;1.00;0.40;;;;;;;21.20;69.26;100774.78;107811;1274;63675;-84